Time;durP1;ratioP1;P1;durP2;ratioP2;P2;SDS_P1;SDS_P2;PMS_P1;PMS_P2;Temp;Humidity;BMP_temperature;BMP_pressure;BME280_temperature;BME280_humidity;BME280_pressure;Samples;Min_cycle;Max_cycle;Signal;HPM_P1;HPM_P2
2023/09/06 00:01:43;;;;;;;;;;;21.50;45.20;;;21.06;45.00;101863.47;12252329;19;19927;-86
2023/09/06 00:05:44;;;;;;;;;;;21.50;45.30;;;21.06;45.40;101866.97;12250701;19;19996;-86
2023/09/06 00:09:46;;;;;;;;;;;21.50;45.30;;;21.04;45.47;101863.63;12250110;19;20283;-87
2023/09/06 00:13:47;;;;;;;;;;;21.50;45.30;;;20.97;45.58;101857.09;12250228;19;19982;-86
2023/09/06 00:17:49;;;;;;;;;;;21.40;45.30;;;20.72;45.25;101840.50;12245996;19;20284;-87
2023/09/06 00:21:50;;;;;;;;;;;21.40;45.20;;;20.75;45.44;101848.22;12251308;19;19919;-87
2023/09/06 00:25:53;;;;;;;;;;;21.30;45.20;;;20.76;45.53;101849.88;12248443;19;19970;-87
2023/09/06 00:29:55;;;;;;;;;;;21.20;45.20;;;20.75;45.51;101856.19;12251800;19;19955;-87
2023/09/06 00:33:56;;;;;;;;;;;21.20;45.30;;;20.69;45.60;101856.69;12247836;19;19907;-87
2023/09/06 00:38:05;;;;;;;;;;;21.20;45.30;;;20.43;45.51;101820.72;12246380;19;19923;-86
2023/09/06 00:42:06;;;;;;;;;;;21.10;45.30;;;20.53;45.87;101833.16;12250589;19;19923;-86
2023/09/06 00:46:08;;;;;;;;;;;21.10;45.30;;;20.47;45.74;101830.13;12245525;19;19961;-86
2023/09/06 00:50:11;;;;;;;;;;;21.00;45.40;;;20.43;45.40;101831.34;12248830;19;19923;-86
2023/09/06 00:54:12;;;;;;;;;;;21.00;45.40;;;20.42;45.44;101838.47;12244615;19;20083;-86
2023/09/06 00:58:16;;;;;;;;;;;21.00;45.40;;;20.32;45.67;101832.19;12248731;19;19919;-86
2023/09/06 01:02:17;;;;;;;;;;;20.90;45.40;;;20.25;45.89;101829.19;12246601;19;19926;-87
2023/09/06 01:06:26;;;;;;;;;;;20.90;45.50;;;20.30;45.88;101834.94;12244168;19;19919;-87
2023/09/06 01:10:28;;;;;;;;;;;20.80;45.50;;;20.32;45.67;101856.06;12246634;19;19918;-86
2023/09/06 01:14:29;;;;;;;;;;;20.80;45.50;;;20.16;45.93;101834.34;12245123;19;20329;-87
2023/09/06 01:18:55;;;;;;;;;;;20.80;45.50;;;20.23;45.65;101856.78;12241209;19;19929;-87
2023/09/06 01:28:02;;;;;;;;;;;20.70;45.50;;;20.08;45.82;101848.22;12238918;19;19926;-86
2023/09/06 01:32:05;;;;;;;;;;;20.60;45.50;;;20.01;46.23;101846.97;12245625;19;19947;-86
2023/09/06 01:36:07;;;;;;;;;;;20.60;45.60;;;20.01;45.95;101854.94;12245960;19;19921;-87
2023/09/06 01:40:16;;;;;;;;;;;20.50;45.60;;;19.96;46.03;101852.66;12249115;19;19919;-87
2023/09/06 01:44:17;;;;;;;;;;;20.50;45.70;;;19.83;46.07;101838.66;12246030;19;19986;-87
2023/09/06 01:48:19;;;;;;;;;;;20.40;45.70;;;19.64;46.33;101813.53;12245833;19;19911;-87
2023/09/06 01:52:21;;;;;;;;;;;20.40;45.70;;;19.60;46.07;101811.22;12243274;19;19914;-86
2023/09/06 01:56:23;;;;;;;;;;;20.40;45.80;;;19.69;46.16;101831.75;12241923;19;19986;-86
2023/09/06 02:00:28;;;;;;;;;;;20.30;45.70;;;19.77;46.08;101844.44;12243862;19;19929;-87
2023/09/06 02:04:29;;;;;;;;;;;20.30;45.70;;;19.74;46.38;101844.66;12243835;19;19915;-87
2023/09/06 02:08:32;;;;;;;;;;;20.20;45.70;;;19.59;46.42;101817.47;12244178;19;19923;-86
2023/09/06 02:12:33;;;;;;;;;;;20.20;45.70;;;19.61;45.96;101834.13;12242827;19;19915;-86
2023/09/06 02:16:35;;;;;;;;;;;20.20;45.80;;;19.41;46.03;101802.00;12240946;19;19915;-86
2023/09/06 02:20:39;;;;;;;;;;;20.20;45.80;;;19.37;46.54;101800.56;12241348;19;19911;-86
2023/09/06 02:24:40;;;;;;;;;;;20.10;45.80;;;19.57;46.32;101835.28;12242415;19;20612;-86
2023/09/06 02:28:42;;;;;;;;;;;20.10;45.90;;;19.37;46.26;101815.63;12242807;19;19915;-86
2023/09/06 02:32:44;;;;;;;;;;;20.10;45.90;;;19.31;46.28;101819.56;12249037;19;20365;-86
2023/09/06 02:36:45;;;;;;;;;;;20.00;45.80;;;19.38;46.38;101833.19;12252168;19;19919;-87
2023/09/06 02:40:47;;;;;;;;;;;20.00;45.80;;;19.32;46.29;101837.13;12256247;19;19997;-87
2023/09/06 02:44:48;;;;;;;;;;;19.90;45.80;;;19.34;46.65;101843.19;12249366;19;19922;-86
2023/09/06 02:48:50;;;;;;;;;;;19.90;45.80;;;19.07;46.22;101803.69;12255031;19;20308;-86
2023/09/06 02:52:56;;;;;;;;;;;19.80;45.80;;;19.24;46.53;101844.81;12253978;19;19961;-86
2023/09/06 02:56:57;;;;;;;;;;;19.80;45.80;;;19.18;46.70;101838.16;12251465;19;19915;-86
2023/09/06 03:01:05;;;;;;;;;;;19.80;45.90;;;19.16;46.75;101844.53;12255013;19;19914;-87
2023/09/06 03:05:09;;;;;;;;;;;19.70;45.90;;;19.05;46.75;101845.31;12253277;19;20304;-87
2023/09/06 03:09:10;;;;;;;;;;;19.70;45.90;;;19.10;46.75;101874.13;12256044;19;19918;-86
2023/09/06 03:13:15;;;;;;;;;;;19.70;45.90;;;18.98;46.84;101855.53;12252587;19;19919;-87
2023/09/06 03:17:18;;;;;;;;;;;19.70;45.90;;;19.00;46.66;101856.22;12249971;19;19932;-87
2023/09/06 03:21:24;;;;;;;;;;;19.60;45.90;;;18.90;46.58;101849.06;12252497;19;19933;-87
2023/09/06 03:25:26;;;;;;;;;;;19.60;46.00;;;18.95;46.73;101868.13;12250367;19;19919;-86
2023/09/06 03:29:28;;;;;;;;;;;19.50;45.90;;;18.85;46.75;101869.72;12254127;19;19919;-86
2023/09/06 03:33:30;;;;;;;;;;;19.50;45.90;;;18.79;46.74;101869.25;12250044;19;20364;-86
2023/09/06 03:37:33;;;;;;;;;;;19.50;45.90;;;18.69;47.01;101867.34;12248458;19;19948;-87
2023/09/06 03:41:35;;;;;;;;;;;19.40;45.90;;;18.41;46.82;101837.50;12251380;19;19914;-86
2023/09/06 03:45:36;;;;;;;;;;;19.30;45.90;;;18.66;46.60;101884.28;12249317;19;19922;-86
2023/09/06 03:49:38;;;;;;;;;;;19.30;45.90;;;18.55;46.76;101877.09;12251580;19;19923;-86
2023/09/06 03:53:41;;;;;;;;;;;19.20;45.90;;;18.56;46.84;101889.34;12248708;19;19938;-86
2023/09/06 03:57:44;;;;;;;;;;;19.20;46.00;;;18.29;46.80;101847.16;12246564;19;19983;-86
2023/09/06 04:01:47;;;;;;;;;;;19.10;45.90;;;18.46;46.67;101887.47;12250133;19;19918;-86
2023/09/06 04:05:50;;;;;;;;;;;19.10;46.00;;;18.41;46.82;101887.78;12249305;19;19926;-86
2023/09/06 04:09:56;;;;;;;;;;;19.00;46.00;;;18.37;47.03;101888.94;12251737;19;19940;-86
2023/09/06 04:13:57;;;;;;;;;;;19.00;46.00;;;18.35;46.81;101906.72;12247041;19;19929;-87
2023/09/06 04:18:03;;;;;;;;;;;19.00;46.10;;;18.27;46.97;101907.25;12246967;19;19923;-87
2023/09/06 04:22:05;;;;;;;;;;;18.90;46.00;;;18.23;47.00;101897.84;12249704;19;20258;-87
2023/09/06 04:26:13;;;;;;;;;;;18.90;46.00;;;18.17;47.00;101902.69;12247931;19;19923;-87
2023/09/06 04:30:16;;;;;;;;;;;18.80;46.10;;;18.09;46.99;101896.16;12244058;19;19926;-87
2023/09/06 04:34:19;;;;;;;;;;;18.80;46.20;;;18.08;46.99;101899.72;12240469;19;19975;-87
2023/09/06 04:38:23;;;;;;;;;;;18.80;46.20;;;18.13;47.23;101913.47;12248792;19;19910;-87
2023/09/06 04:42:32;;;;;;;;;;;18.70;46.20;;;18.06;47.20;101911.34;12246553;19;19934;-87
2023/09/06 04:46:34;;;;;;;;;;;18.70;46.20;;;18.01;47.35;101914.34;12244236;19;20331;-87
2023/09/06 04:50:37;;;;;;;;;;;18.70;46.20;;;17.81;47.29;101891.88;12247840;19;19915;-87
2023/09/06 04:54:39;;;;;;;;;;;18.70;46.20;;;17.74;47.22;101874.72;12242221;19;19915;-86
2023/09/06 04:58:42;;;;;;;;;;;18.60;46.20;;;17.94;47.37;101917.47;12246761;19;19994;-86
2023/09/06 05:02:46;;;;;;;;;;;18.60;46.30;;;17.92;47.39;101918.41;12247023;19;19935;-86
2023/09/06 05:06:48;;;;;;;;;;;18.50;46.30;;;17.91;47.22;101919.38;12243276;19;19937;-86
2023/09/06 05:10:51;;;;;;;;;;;18.60;46.40;;;17.80;47.23;101902.56;12245804;19;20308;-86
2023/09/06 05:14:54;;;;;;;;;;;18.60;46.40;;;17.90;47.25;101922.09;12243567;19;19962;-86
2023/09/06 05:18:55;;;;;;;;;;;18.60;46.50;;;17.84;47.53;101910.16;12244275;19;20242;-86
2023/09/06 05:23:09;;;;;;;;;;;18.60;46.50;;;17.89;47.32;101925.72;12246493;19;19931;-86
2023/09/06 05:27:12;;;;;;;;;;;18.60;46.40;;;17.87;47.66;101927.59;12243571;19;19933;-86
2023/09/06 05:31:16;;;;;;;;;;;18.50;46.50;;;17.74;47.47;101910.84;12246757;19;19939;-86
2023/09/06 05:35:18;;;;;;;;;;;18.50;46.50;;;17.67;47.52;101911.25;12243162;19;20266;-86
2023/09/06 05:39:20;;;;;;;;;;;18.60;46.80;;;17.79;47.55;101941.31;12245820;19;19971;-86
2023/09/06 05:43:23;;;;;;;;;;;18.50;46.60;;;17.79;47.62;101949.25;12244950;19;19918;-86
2023/09/06 05:47:25;;;;;;;;;;;18.50;46.60;;;17.70;47.76;101937.47;12240933;19;19922;-87
2023/09/06 05:51:27;;;;;;;;;;;18.50;46.70;;;17.70;47.73;101937.47;12244367;19;19949;-86
2023/09/06 05:55:30;;;;;;;;;;;18.50;46.70;;;17.70;47.64;101933.97;12239499;19;20329;-87
2023/09/06 05:59:33;;;;;;;;;;;18.50;46.80;;;17.74;47.58;101945.19;12244666;19;20435;-86
2023/09/06 06:03:37;;;;;;;;;;;18.50;46.90;;;17.82;47.70;101949.06;12243112;19;19927;-86
2023/09/06 06:07:39;;;;;;;;;;;18.60;47.10;;;17.86;48.03;101955.00;12246136;19;20357;-85
2023/09/06 06:11:41;;;;;;;;;;;18.60;47.20;;;17.76;47.88;101930.94;12256761;19;19990;-85
2023/09/06 06:15:42;;;;;;;;;;;18.60;47.20;;;17.80;48.14;101921.91;12252448;19;19919;-87
2023/09/06 06:19:48;;;;;;;;;;;18.70;47.50;;;18.04;48.30;101945.84;12251673;19;19982;-85
2023/09/06 06:23:50;;;;;;;;;;;18.80;47.60;;;17.87;47.98;101912.59;12252533;19;19934;-85
2023/09/06 06:27:51;;;;;;;;;;;18.90;47.80;;;18.23;48.06;101956.03;12247374;19;19982;-85
2023/09/06 06:31:53;;;;;;;;;;;19.00;48.00;;;18.26;48.25;101944.38;12255223;19;19927;-85
2023/09/06 06:35:54;;;;;;;;;;;19.10;48.10;;;18.39;48.29;101952.31;12251038;19;19943;-86
2023/09/06 06:39:58;;;;;;;;;;;19.20;48.50;;;18.49;48.33;101958.66;12255137;19;19926;-86
2023/09/06 06:44:00;;;;;;;;;;;19.30;48.60;;;18.54;48.20;101954.75;12257274;19;20400;-85
2023/09/06 06:48:01;;;;;;;;;;;19.30;48.30;;;18.64;48.27;101959.41;12253469;19;19918;-85
2023/09/06 06:52:02;;;;;;;;;;;19.50;48.50;;;18.72;48.46;101952.63;12247145;19;19939;-85
2023/09/06 06:56:04;;;;;;;;;;;19.60;48.60;;;18.81;48.41;101951.16;12250881;19;19929;-86
2023/09/06 07:00:09;;;;;;;;;;;19.80;48.50;;;18.92;48.71;101950.41;12251689;19;19970;-85
2023/09/06 07:04:11;;;;;;;;;;;19.80;48.50;;;19.05;48.40;101963.63;12254097;19;19917;-85
2023/09/06 07:08:12;;;;;;;;;;;20.00;48.60;;;19.04;48.60;101941.59;12253535;19;19946;-85
2023/09/06 07:12:13;;;;;;;;;;;20.10;48.70;;;19.12;48.52;101941.03;12254550;19;19921;-85
2023/09/06 07:16:16;;;;;;;;;;;20.20;49.00;;;19.28;48.81;101954.88;12222085;19;20374;-84
2023/09/06 07:20:18;;;;;;;;;;;20.30;48.70;;;19.42;48.80;101956.53;12138215;19;19922;-84
2023/09/06 07:24:19;;;;;;;;;;;20.40;48.70;;;19.58;48.75;101964.19;12142388;19;20192;-84
2023/09/06 07:28:22;;;;;;;;;;;20.60;48.80;;;19.66;48.89;101959.22;12149339;19;19934;-85
2023/09/06 07:32:24;;;;;;;;;;;20.70;49.00;;;19.79;48.67;101965.25;12134946;19;20049;-84
2023/09/06 07:36:25;;;;;;;;;;;20.80;49.10;;;19.94;49.10;101962.44;12140594;19;19919;-84
2023/09/06 07:40:27;;;;;;;;;;;21.00;49.10;;;20.19;48.87;101967.56;12139534;19;20753;-84
2023/09/06 07:44:32;;;;;;;;;;;21.10;49.00;;;20.33;48.90;101970.03;12140397;19;19926;-85
2023/09/06 07:48:35;;;;;;;;;;;21.40;49.10;;;20.54;49.20;101970.19;12145450;19;19923;-84
2023/09/06 07:52:37;;;;;;;;;;;21.60;49.10;;;20.74;49.24;101979.28;12145121;19;20443;-83
2023/09/06 07:56:39;;;;;;;;;;;21.80;49.00;;;20.95;49.23;101976.75;12133879;19;19932;-84
2023/09/06 08:00:41;;;;;;;;;;;22.10;49.50;;;21.28;49.56;101987.44;12143199;19;20191;-85
2023/09/06 08:04:42;;;;;;;;;;;22.30;49.40;;;21.53;49.86;101987.19;12139739;19;19926;-84
2023/09/06 08:08:44;;;;;;;;;;;22.60;49.30;;;21.83;49.84;101977.66;12140588;19;20612;-84
2023/09/06 08:12:45;;;;;;;;;;;23.00;49.30;;;22.13;49.54;101994.69;12127275;19;20282;-84
2023/09/06 08:16:46;;;;;;;;;;;23.30;49.30;;;22.35;49.45;101980.44;12136072;19;19919;-84
2023/09/06 08:20:48;;;;;;;;;;;23.50;49.00;;;22.66;49.46;101987.47;12098565;19;19997;-84
2023/09/06 08:24:50;;;;;;;;;;;23.80;49.30;;;22.85;49.71;101978.72;12133631;19;20889;-84
2023/09/06 08:28:52;;;;;;;;;;;24.10;48.70;;;23.12;49.36;101985.31;12132425;19;19939;-84
2023/09/06 08:32:53;;;;;;;;;;;24.40;48.40;;;23.40;49.58;101997.00;12132099;19;20455;-83
2023/09/06 08:36:56;;;;;;;;;;;24.50;48.40;;;23.64;49.67;101985.94;12130304;19;19918;-84
2023/09/06 08:40:58;;;;;;;;;;;24.90;48.50;;;23.85;49.31;101978.69;12130972;19;20274;-84
2023/09/06 08:45:01;;;;;;;;;;;25.10;48.40;;;24.04;49.62;101971.66;12132288;19;19942;-84
2023/09/06 08:49:05;;;;;;;;;;;25.30;48.10;;;24.30;49.32;101985.22;12134924;19;19942;-84
2023/09/06 08:53:10;;;;;;;;;;;25.50;47.50;;;24.46;49.64;101979.31;12129471;19;20200;-84
2023/09/06 08:57:13;;;;;;;;;;;25.70;47.70;;;24.78;49.09;101997.63;12129718;19;19940;-84
2023/09/06 09:01:15;;;;;;;;;;;26.00;47.80;;;24.97;49.13;101991.34;12132358;19;19925;-84
2023/09/06 09:05:19;;;;;;;;;;;26.20;47.60;;;25.13;49.50;101980.84;12128122;19;20444;-84
2023/09/06 09:09:21;;;;;;;;;;;26.40;47.50;;;25.38;49.02;101992.72;12128323;19;19940;-84
2023/09/06 09:13:23;;;;;;;;;;;26.60;47.10;;;25.63;48.97;102002.81;12133798;19;20287;-84
2023/09/06 09:17:26;;;;;;;;;;;26.80;46.20;;;25.78;48.95;101996.75;12128984;19;19927;-84
2023/09/06 09:21:28;;;;;;;;;;;27.00;47.00;;;25.92;49.00;101998.09;12129220;19;19930;-85
2023/09/06 09:25:30;;;;;;;;;;;27.10;46.80;;;26.11;49.00;101998.91;12128373;19;19943;-83
2023/09/06 09:29:31;;;;;;;;;;;27.30;47.00;;;26.26;48.98;101997.34;12129314;19;19919;-83
2023/09/06 09:33:33;;;;;;;;;;;27.50;46.80;;;26.44;49.01;101995.47;12129553;19;20669;-84
2023/09/06 09:37:35;;;;;;;;;;;27.70;46.60;;;26.66;48.64;102001.31;12129252;19;19923;-85
2023/09/06 09:41:41;;;;;;;;;;;27.80;46.80;;;26.82;48.92;101998.72;12130718;19;20331;-85
2023/09/06 09:45:45;;;;;;;;;;;28.00;46.20;;;26.94;48.47;101999.28;12118641;19;20018;-83
2023/09/06 09:49:46;;;;;;;;;;;28.30;46.70;;;27.06;48.24;101994.47;12126816;19;19923;-83
2023/09/06 09:53:48;;;;;;;;;;;28.30;46.50;;;27.23;48.57;101998.91;12120934;19;19971;-84
2023/09/06 09:57:51;;;;;;;;;;;28.40;45.60;;;27.35;48.29;101989.56;12101927;19;20216;-84
2023/09/06 10:01:54;;;;;;;;;;;28.50;46.20;;;27.51;48.03;102004.84;12113863;19;19933;-84
2023/09/06 10:05:58;;;;;;;;;;;28.70;45.70;;;27.66;48.33;102007.72;12109726;19;20355;-83
2023/09/06 10:10:01;;;;;;;;;;;28.80;45.80;;;27.76;48.08;101997.69;12113034;19;20014;-83
2023/09/06 10:14:04;;;;;;;;;;;28.90;45.70;;;27.95;47.97;102001.03;12113393;19;20703;-84
2023/09/06 10:18:06;;;;;;;;;;;29.00;45.80;;;28.02;47.89;101988.63;12109477;19;20378;-84
2023/09/06 10:22:12;;;;;;;;;;;29.20;45.50;;;28.20;47.82;101991.13;12117953;19;21066;-84
2023/09/06 10:26:25;;;;;;;;;;;29.30;44.60;;;28.30;47.85;101994.50;12113046;19;19923;-83
2023/09/06 10:30:44;;;;;;;;;;;29.50;44.90;;;28.46;47.52;101999.00;12116028;19;19935;-84
2023/09/06 10:34:45;;;;;;;;;;;29.60;44.30;;;28.56;47.27;101999.66;12112228;19;20708;-83
2023/09/06 10:39:14;;;;;;;;;;;29.70;45.10;;;28.71;47.22;102001.66;12117203;19;19971;-84
2023/09/06 10:43:20;;;;;;;;;;;29.80;44.50;;;28.80;47.14;102000.59;12115044;19;19915;-84
2023/09/06 10:47:27;;;;;;;;;;;29.80;43.30;;;28.88;47.17;101997.88;12110314;19;20282;-84
2023/09/06 10:51:28;;;;;;;;;;;29.90;44.50;;;29.02;47.02;101999.81;12116515;19;19914;-83
2023/09/06 10:55:43;;;;;;;;;;;30.00;42.60;;;29.13;46.91;101990.53;12121167;19;19943;-83
2023/09/06 10:59:58;;;;;;;;;;;30.20;44.60;;;29.29;46.81;101986.94;12135204;19;20728;-84
2023/09/06 11:04:11;;;;;;;;;;;30.30;44.00;;;29.32;46.60;101982.03;12133206;19;19923;-83
2023/09/06 11:08:26;;;;;;;;;;;30.40;44.70;;;29.52;46.58;101982.41;12134284;19;19945;-84
2023/09/06 11:12:27;;;;;;;;;;;30.60;44.40;;;29.56;46.46;101969.41;12133809;19;20969;-83
2023/09/06 11:16:29;;;;;;;;;;;30.60;43.00;;;29.70;46.09;101971.34;12127697;19;19931;-83
2023/09/06 11:20:32;;;;;;;;;;;30.70;43.70;;;29.81;46.44;101986.25;12132751;19;20314;-84
2023/09/06 11:24:35;;;;;;;;;;;30.90;43.60;;;29.92;46.44;101980.44;12135812;19;19927;-83
2023/09/06 11:28:38;;;;;;;;;;;30.90;42.70;;;30.04;45.98;101978.13;12109245;19;20264;-84
2023/09/06 11:32:39;;;;;;;;;;;31.00;41.90;;;29.94;45.98;101945.22;12140203;19;20176;-84
2023/09/06 11:36:41;;;;;;;;;;;31.10;42.80;;;30.25;46.00;101972.06;12130512;19;20421;-85
2023/09/06 11:40:44;;;;;;;;;;;31.20;42.50;;;30.29;45.63;101962.59;12133845;19;20273;-84
2023/09/06 11:44:53;;;;;;;;;;;31.30;41.90;;;30.34;45.91;101959.34;12130488;19;20290;-83
2023/09/06 11:48:54;;;;;;;;;;;31.40;43.00;;;30.43;45.36;101966.31;12133261;19;20507;-85
2023/09/06 11:52:58;;;;;;;;;;;31.40;43.20;;;30.45;45.60;101950.78;12134823;19;19982;-84
2023/09/06 11:57:03;;;;;;;;;;;31.50;43.80;;;30.57;45.02;101954.69;12126107;19;20183;-84
2023/09/06 12:01:07;;;;;;;;;;;31.50;41.80;;;30.65;45.31;101954.59;12131563;19;20542;-84
2023/09/06 12:05:11;;;;;;;;;;;31.60;42.60;;;30.68;44.91;101947.13;12116035;19;20360;-84
2023/09/06 12:09:13;;;;;;;;;;;31.60;43.00;;;30.77;44.76;101949.56;12119464;19;19923;-84
2023/09/06 12:13:14;;;;;;;;;;;31.70;43.00;;;30.77;44.70;101940.63;12066803;19;20464;-85
2023/09/06 12:17:18;;;;;;;;;;;31.70;43.10;;;30.85;44.49;101929.75;12071562;19;20323;-84
2023/09/06 12:21:21;;;;;;;;;;;31.80;42.10;;;30.92;44.46;101932.53;12088124;19;20006;-84
2023/09/06 12:25:23;;;;;;;;;;;31.90;42.80;;;31.06;44.32;101939.75;12092254;19;19923;-85
2023/09/06 12:29:24;;;;;;;;;;;31.90;42.20;;;31.13;44.54;101937.13;12093348;19;20382;-85
2023/09/06 12:33:28;;;;;;;;;;;32.00;40.90;;;31.16;44.35;101936.72;12098489;19;20403;-86
2023/09/06 12:37:30;;;;;;;;;;;32.10;42.50;;;31.21;44.39;101935.13;12090884;19;19926;-85
2023/09/06 12:41:31;;;;;;;;;;;32.10;41.00;;;31.30;44.29;101936.69;12093625;19;19929;-85
2023/09/06 12:45:33;;;;;;;;;;;32.20;42.40;;;31.36;44.07;101934.25;12092055;19;20184;-85
2023/09/06 12:49:35;;;;;;;;;;;32.20;42.30;;;31.42;43.98;101928.09;12096124;19;20190;-85
2023/09/06 12:53:37;;;;;;;;;;;32.30;42.70;;;31.45;44.01;101930.41;12092770;19;19919;-84
2023/09/06 12:57:38;;;;;;;;;;;32.30;40.60;;;31.51;43.61;101929.63;12096032;19;20521;-83
2023/09/06 13:01:40;;;;;;;;;;;32.40;41.80;;;31.54;43.60;101926.53;12093553;19;20468;-83
2023/09/06 13:05:43;;;;;;;;;;;32.40;41.10;;;31.58;44.00;101927.00;12099381;19;20459;-83
2023/09/06 13:09:44;;;;;;;;;;;32.40;39.60;;;31.59;43.28;101921.38;12095617;19;19927;-84
2023/09/06 13:13:46;;;;;;;;;;;32.40;41.30;;;31.66;43.27;101918.75;12089887;19;19965;-84
2023/09/06 13:17:47;;;;;;;;;;;32.40;38.10;;;31.70;43.23;101920.03;12095220;19;20501;-84
2023/09/06 13:21:49;;;;;;;;;;;32.50;40.70;;;31.72;43.11;101912.56;12130332;19;19940;-84
2023/09/06 13:25:54;;;;;;;;;;;32.50;38.20;;;31.79;42.83;101912.63;12110355;19;20897;-83
2023/09/06 13:29:57;;;;;;;;;;;32.50;41.10;;;31.78;42.67;101910.94;12102893;19;20386;-86
2023/09/06 13:33:58;;;;;;;;;;;32.60;41.10;;;31.76;42.62;101897.66;12106395;19;20400;-83
2023/09/06 13:38:00;;;;;;;;;;;32.60;41.30;;;31.83;42.73;101912.03;12127788;19;19927;-82
2023/09/06 13:42:01;;;;;;;;;;;32.60;41.10;;;31.88;42.37;101916.84;12135063;19;19929;-83
2023/09/06 13:46:04;;;;;;;;;;;32.60;39.60;;;31.86;42.71;101910.81;12106798;19;19926;-84
2023/09/06 13:50:05;;;;;;;;;;;32.60;39.80;;;31.86;42.24;101902.69;12095520;19;20452;-83
2023/09/06 13:54:07;;;;;;;;;;;32.60;41.00;;;31.90;42.62;101901.28;12102478;19;19926;-83
2023/09/06 13:58:10;;;;;;;;;;;32.60;40.50;;;31.91;42.20;101903.78;12133600;19;20019;-82
2023/09/06 14:02:11;;;;;;;;;;;32.60;36.30;;;31.90;42.14;101893.19;12129742;19;19923;-83
2023/09/06 14:06:13;;;;;;;;;;;32.60;38.90;;;31.88;42.19;101885.25;12109438;19;20316;-83
2023/09/06 14:10:14;;;;;;;;;;;32.60;35.20;;;31.83;41.82;101876.91;12099133;19;19994;-83
2023/09/06 14:14:17;;;;;;;;;;;32.60;38.90;;;31.89;41.88;101888.78;12098379;19;19987;-83
2023/09/06 14:18:20;;;;;;;;;;;32.60;39.90;;;31.88;41.73;101881.72;12127264;19;19923;-83
2023/09/06 14:22:22;;;;;;;;;;;32.60;39.80;;;31.90;41.67;101877.78;12125113;19;20040;-83
2023/09/06 14:26:24;;;;;;;;;;;32.50;38.90;;;31.89;41.47;101869.88;12106108;19;19922;-83
2023/09/06 14:30:25;;;;;;;;;;;32.60;39.60;;;31.87;41.45;101863.84;12097898;19;19933;-84
2023/09/06 14:34:27;;;;;;;;;;;32.60;40.00;;;31.91;41.63;101876.75;12108330;19;19919;-83
2023/09/06 14:38:28;;;;;;;;;;;32.60;40.20;;;31.88;41.46;101858.22;12129236;19;20389;-83
2023/09/06 14:42:32;;;;;;;;;;;32.60;39.90;;;31.96;41.15;101877.03;12125589;19;20258;-83
2023/09/06 14:46:35;;;;;;;;;;;32.60;40.40;;;31.93;41.35;101863.91;12099002;19;20199;-83
2023/09/06 14:50:37;;;;;;;;;;;32.60;40.30;;;31.91;41.06;101860.53;12094188;19;19922;-83
2023/09/06 14:54:49;;;;;;;;;;;32.60;38.90;;;31.97;40.92;101875.16;12105600;19;20596;-84
2023/09/06 14:58:54;;;;;;;;;;;32.60;40.20;;;31.81;40.92;101840.31;12128272;19;20963;-83
2023/09/06 15:02:59;;;;;;;;;;;32.60;39.50;;;31.99;40.93;101862.28;12128043;19;20337;-83
2023/09/06 15:07:02;;;;;;;;;;;32.60;39.10;;;31.98;41.05;101860.63;12098948;19;20326;-84
2023/09/06 15:11:04;;;;;;;;;;;32.60;39.80;;;31.99;40.63;101859.56;12093298;19;20284;-83
2023/09/06 15:15:08;;;;;;;;;;;32.60;40.30;;;31.91;40.44;101843.50;12090403;19;19927;-84
2023/09/06 15:19:09;;;;;;;;;;;32.60;38.90;;;31.95;40.47;101856.44;12096526;19;19923;-84
2023/09/06 15:23:14;;;;;;;;;;;32.60;39.70;;;31.89;40.73;101849.13;12094114;19;20380;-84
2023/09/06 15:27:15;;;;;;;;;;;32.50;40.00;;;31.92;40.49;101858.69;12090573;19;19926;-84
2023/09/06 15:31:20;;;;;;;;;;;32.50;38.50;;;31.92;40.25;101853.28;12094714;19;20394;-84
2023/09/06 15:35:27;;;;;;;;;;;32.50;39.30;;;31.92;40.47;101864.97;12089929;19;20617;-84
2023/09/06 15:39:31;;;;;;;;;;;32.50;39.60;;;31.93;40.41;101860.38;12095554;19;19930;-84
2023/09/06 15:43:33;;;;;;;;;;;32.50;39.90;;;31.92;40.53;101861.41;12090182;19;20914;-84
2023/09/06 15:47:35;;;;;;;;;;;32.50;39.70;;;31.89;40.43;101849.13;12085225;19;20188;-83
2023/09/06 15:51:36;;;;;;;;;;;32.50;40.10;;;31.86;40.31;101852.19;12093169;19;19947;-84
2023/09/06 15:55:38;;;;;;;;;;;32.50;39.90;;;31.90;40.15;101855.34;12093370;19;19930;-84
2023/09/06 15:59:40;;;;;;;;;;;32.50;39.90;;;31.89;39.98;101859.91;12098901;19;19918;-84
2023/09/06 16:03:41;;;;;;;;;;;32.50;37.90;;;31.93;39.83;101871.19;12098967;19;19927;-84
2023/09/06 16:07:43;;;;;;;;;;;32.50;39.80;;;31.88;40.17;101858.22;12100015;19;19926;-84
2023/09/06 16:11:44;;;;;;;;;;;32.50;39.30;;;31.87;40.20;101861.16;12099781;19;19950;-85
2023/09/06 16:15:48;;;;;;;;;;;32.40;39.50;;;31.82;39.83;101866.31;12091380;19;19948;-85
2023/09/06 16:19:50;;;;;;;;;;;32.40;40.10;;;31.74;39.90;101856.50;12100835;19;19923;-86
2023/09/06 16:23:52;;;;;;;;;;;32.30;40.10;;;31.65;40.10;101853.09;12092390;19;20281;-85
2023/09/06 16:27:53;;;;;;;;;;;32.20;39.80;;;31.70;39.70;101874.97;12099323;19;20458;-84
2023/09/06 16:31:55;;;;;;;;;;;32.20;40.20;;;31.56;39.75;101866.94;12099213;19;20399;-84
2023/09/06 16:35:57;;;;;;;;;;;32.10;40.20;;;31.49;39.82;101859.63;12094114;19;19918;-85
2023/09/06 16:39:58;;;;;;;;;;;32.00;40.40;;;31.40;39.93;101868.88;12102147;19;19923;-85
2023/09/06 16:44:00;;;;;;;;;;;31.90;40.40;;;31.25;39.55;101863.56;12104069;19;20238;-85
2023/09/06 16:48:01;;;;;;;;;;;31.80;40.40;;;31.11;39.64;101860.91;12099386;19;20248;-85
2023/09/06 16:52:07;;;;;;;;;;;31.60;40.40;;;31.03;39.78;101859.19;12101301;19;20480;-85
2023/09/06 16:56:09;;;;;;;;;;;31.50;40.50;;;30.94;39.88;101863.03;12095754;19;20310;-85
2023/09/06 17:00:13;;;;;;;;;;;31.30;40.50;;;30.84;39.67;101874.97;12095204;19;19919;-86
2023/09/06 17:04:15;;;;;;;;;;;31.20;40.60;;;30.72;39.60;101884.53;12098924;19;19923;-86
2023/09/06 17:08:17;;;;;;;;;;;31.10;40.50;;;30.57;39.98;101875.63;12099157;19;20381;-83
2023/09/06 17:12:20;;;;;;;;;;;30.90;40.50;;;30.43;39.71;101880.03;12093673;19;19940;-83
2023/09/06 17:16:22;;;;;;;;;;;30.80;40.50;;;30.31;39.55;101886.94;12099467;19;19947;-83
2023/09/06 17:20:25;;;;;;;;;;;30.60;40.50;;;30.14;39.83;101881.72;12104248;19;20310;-83
2023/09/06 17:24:26;;;;;;;;;;;30.50;40.50;;;30.04;39.87;101896.47;12099340;19;20374;-83
2023/09/06 17:28:28;;;;;;;;;;;30.30;40.50;;;29.85;39.47;101887.91;12107536;19;19942;-83
2023/09/06 17:32:30;;;;;;;;;;;30.20;40.50;;;29.75;39.53;101893.56;12141557;19;19941;-83
2023/09/06 17:36:32;;;;;;;;;;;30.00;40.40;;;29.54;39.56;101891.53;12134375;19;20434;-86
2023/09/06 17:40:34;;;;;;;;;;;29.90;40.50;;;29.43;39.71;101894.63;12139182;19;19923;-85
2023/09/06 17:44:37;;;;;;;;;;;29.70;40.90;;;29.30;39.82;101899.78;12124973;19;20018;-86
2023/09/06 17:48:38;;;;;;;;;;;29.60;40.50;;;29.18;39.69;101906.63;12100162;19;20406;-86
2023/09/06 17:52:40;;;;;;;;;;;29.40;40.40;;;28.94;39.69;101892.28;12097405;19;20244;-85
2023/09/06 17:56:43;;;;;;;;;;;29.30;40.40;;;28.89;39.81;101913.47;12119627;19;20207;-85
2023/09/06 18:00:45;;;;;;;;;;;29.10;40.40;;;28.73;39.88;101913.56;12136197;19;19918;-85
2023/09/06 18:04:47;;;;;;;;;;;28.90;40.40;;;28.61;39.81;101911.28;12132384;19;20379;-86
2023/09/06 18:08:49;;;;;;;;;;;28.80;40.50;;;28.48;39.71;101910.97;12110796;19;20258;-85
2023/09/06 18:12:51;;;;;;;;;;;28.70;40.50;;;28.32;39.87;101916.38;12113894;19;19927;-85
2023/09/06 18:16:55;;;;;;;;;;;28.50;40.60;;;28.12;39.84;101903.34;12111716;19;19927;-85